Time;durP1;ratioP1;P1;durP2;ratioP2;P2;SDS_P1;SDS_P2;PMS_P1;PMS_P2;Temp;Humidity;BMP_temperature;BMP_pressure;BME280_temperature;BME280_humidity;BME280_pressure;Samples;Min_cycle;Max_cycle;Signal;HPM_P1;HPM_P2
2023/09/27 00:01:49;;;;;;;9.23;8.32;;;;;;;14.46;100.00;101815.06;4995760;28;20038;-55
2023/09/27 00:04:14;;;;;;;10.02;8.27;;;;;;;14.05;100.00;101742.25;4994310;28;20065;-53
2023/09/27 00:06:41;;;;;;;10.52;8.65;;;;;;;14.43;100.00;101816.94;4995779;28;20397;-55
2023/09/27 00:09:07;;;;;;;9.48;8.55;;;;;;;13.71;100.00;101691.31;4996010;28;20038;-54
2023/09/27 00:11:33;;;;;;;10.00;8.70;;;;;;;14.44;100.00;101814.28;4994387;28;20100;-55
2023/09/27 00:13:58;;;;;;;9.90;8.95;;;;;;;14.43;100.00;101814.31;4995707;28;20038;-55
2023/09/27 00:16:24;;;;;;;12.23;10.07;;;;;;;14.02;100.00;101747.63;4995629;28;20462;-53
2023/09/27 00:18:49;;;;;;;10.50;9.27;;;;;;;14.40;100.00;101811.75;4995568;28;20038;-56
2023/09/27 00:21:14;;;;;;;11.05;9.98;;;;;;;14.23;100.00;101787.56;4994745;28;20038;-54
2023/09/27 00:23:40;;;;;;;9.77;8.88;;;;;;;13.82;100.00;101720.94;4994419;28;20046;-54
2023/09/27 00:26:05;;;;;;;10.65;9.38;;;;;;;13.98;100.00;101747.78;4994423;28;20038;-55
2023/09/27 00:28:30;;;;;;;10.23;9.13;;;;;;;13.83;100.00;101730.63;4995422;28;20060;-55
2023/09/27 00:30:55;;;;;;;10.43;9.43;;;;;;;13.90;100.00;101740.09;4994336;28;20232;-54
2023/09/27 00:33:21;;;;;;;10.27;9.30;;;;;;;14.26;100.00;101804.22;4994145;28;20367;-52
2023/09/27 00:35:49;;;;;;;10.43;9.35;;;;;;;14.25;100.00;101817.50;4995713;28;20035;-59
2023/09/27 00:38:15;;;;;;;10.40;9.18;;;;;;;14.15;100.00;101798.41;4993211;28;20034;-54
2023/09/27 00:40:58;;;;;;;10.93;9.95;;;;;;;14.20;100.00;101819.44;4995143;28;20117;-55
2023/09/27 00:43:25;;;;;;;9.80;8.75;;;;;;;13.79;100.00;101747.50;4994068;28;20031;-55
2023/09/27 00:46:02;;;;;;;11.00;9.80;;;;;;;13.71;100.00;101725.72;4995231;28;20039;-52
2023/09/27 00:48:30;;;;;;;12.60;10.57;;;;;;;13.69;100.00;101713.44;4977191;28;20042;-55
2023/09/27 00:50:55;;;;;;;11.52;10.32;;;;;;;14.09;100.00;101796.84;4977442;28;20034;-51
2023/09/27 00:53:22;;;;;;;13.43;9.98;;;;;;;13.70;100.00;101729.25;4993201;28;20030;-55
2023/09/27 00:55:48;;;;;;;14.77;9.98;;;;;;;14.05;100.00;101786.38;4993901;28;20105;-53
2023/09/27 00:58:18;;;;;;;12.07;9.65;;;;;;;13.71;100.00;101730.13;4994652;28;20134;-58
2023/09/27 01:00:44;;;;;;;11.23;10.05;;;;;;;13.68;100.00;101738.16;4994944;28;20132;-57
2023/09/27 01:03:10;;;;;;;11.80;10.63;;;;;;;13.73;100.00;101762.69;4993396;28;20037;-55
2023/09/27 01:05:35;;;;;;;11.18;10.07;;;;;;;14.01;100.00;101816.50;4992240;28;20030;-56
2023/09/27 01:08:01;;;;;;;11.40;9.32;;;;;;;13.98;100.00;101812.16;4994834;28;20064;-56
2023/09/27 01:10:26;;;;;;;11.18;9.60;;;;;;;13.73;100.00;101768.84;4993655;28;20038;-56
2023/09/27 01:12:52;;;;;;;10.57;9.55;;;;;;;13.49;100.00;101737.84;4994673;28;20049;-58
2023/09/27 01:15:17;;;;;;;11.40;9.27;;;;;;;13.76;100.00;101789.06;4994539;28;20030;-56
2023/09/27 01:17:56;;;;;;;10.32;8.95;;;;;;;13.86;100.00;101817.00;4994599;28;20034;-55
2023/09/27 01:20:22;;;;;;;11.02;9.68;;;;;;;13.80;100.00;101815.41;4993347;28;20417;-56
2023/09/27 01:22:58;;;;;;;11.85;9.40;;;;;;;13.41;100.00;101750.44;4993251;28;20054;-55
2023/09/27 01:25:30;;;;;;;10.75;9.25;;;;;;;13.38;100.00;101742.59;4994964;28;20236;-52
2023/09/27 01:28:00;;;;;;;11.48;9.30;;;;;;;13.78;100.00;101814.56;4992793;28;20026;-55
2023/09/27 01:30:32;;;;;;;11.80;9.52;;;;;;;13.77;100.00;101804.91;4994542;28;20049;-54
2023/09/27 01:33:04;;;;;;;11.32;10.13;;;;;;;13.64;100.00;101781.50;4994256;28;20097;-56
2023/09/27 01:35:30;;;;;;;12.05;10.85;;;;;;;13.64;100.00;101795.59;4993954;28;20389;-57
2023/09/27 01:37:55;;;;;;;11.02;9.90;;;;;;;13.56;100.00;101773.78;4992798;28;20046;-55
2023/09/27 01:40:29;;;;;;;10.70;9.63;;;;;;;13.76;100.00;101811.09;4989021;28;20129;-56
2023/09/27 01:42:55;;;;;;;11.63;10.15;;;;;;;13.75;100.00;101816.41;4974863;28;20494;-56
2023/09/27 01:45:21;;;;;;;12.02;10.68;;;;;;;13.74;100.00;101831.47;4973506;28;20050;-58
2023/09/27 01:47:46;;;;;;;10.68;9.48;;;;;;;13.71;100.00;101834.19;4974791;28;20030;-56
2023/09/27 01:50:12;;;;;;;14.60;9.80;;;;;;;13.29;100.00;101759.59;4974630;28;20090;-57
2023/09/27 01:52:37;;;;;;;13.75;10.00;;;;;;;13.45;100.00;101791.75;4974334;28;20066;-55
2023/09/27 01:55:03;;;;;;;13.45;11.05;;;;;;;13.66;100.00;101836.09;4974603;28;20129;-54
2023/09/27 01:57:29;;;;;;;12.35;11.05;;;;;;;13.68;100.00;101833.41;4989133;28;20038;-57
2023/09/27 01:59:54;;;;;;;11.48;10.27;;;;;;;13.14;100.00;101741.53;4993803;28;20556;-53
2023/09/27 02:02:19;;;;;;;11.50;9.77;;;;;;;13.24;100.00;101758.88;4994206;28;20042;-54
2023/09/27 02:04:45;;;;;;;12.95;10.75;;;;;;;13.52;100.00;101825.03;4993778;28;20027;-56
2023/09/27 02:07:10;;;;;;;15.00;10.98;;;;;;;13.65;100.00;101852.03;4992281;28;20038;-54
2023/09/27 02:09:35;;;;;;;11.65;10.00;;;;;;;13.24;100.00;101769.44;4991194;28;20101;-54
2023/09/27 02:12:01;;;;;;;13.13;10.88;;;;;;;13.62;100.00;101846.81;4993478;28;20060;-55
2023/09/27 02:14:26;;;;;;;12.45;10.90;;;;;;;13.16;100.00;101766.16;4993565;28;20081;-56
2023/09/27 02:16:51;;;;;;;12.48;10.32;;;;;;;13.53;100.00;101826.78;4992942;28;20133;-56
2023/09/27 02:19:17;;;;;;;14.20;10.88;;;;;;;13.41;100.00;101808.63;4993519;28;20438;-54
2023/09/27 02:21:42;;;;;;;11.27;10.27;;;;;;;13.11;100.00;101772.47;4991999;28;20049;-55
2023/09/27 02:24:09;;;;;;;14.50;10.57;;;;;;;13.38;100.00;101811.34;4992283;28;20034;-55
2023/09/27 02:26:34;;;;;;;11.68;10.38;;;;;;;13.26;100.00;101785.25;4981864;28;20097;-57
2023/09/27 02:29:00;;;;;;;14.73;10.52;;;;;;;13.27;100.00;101801.09;4973688;28;20451;-55
2023/09/27 02:31:25;;;;;;;10.60;9.57;;;;;;;13.35;100.00;101807.03;4973771;28;20470;-58
2023/09/27 02:33:50;;;;;;;14.82;11.43;;;;;;;13.29;100.00;101807.19;4973720;28;20045;-54
2023/09/27 02:36:16;;;;;;;12.55;11.10;;;;;;;13.30;100.00;101813.34;4973648;28;20170;-53
2023/09/27 02:38:41;;;;;;;13.45;10.07;;;;;;;13.29;100.00;101814.25;4973949;28;20117;-56
2023/09/27 02:41:07;;;;;;;11.65;10.52;;;;;;;12.95;100.00;101762.31;4973700;28;20042;-54
2023/09/27 02:43:33;;;;;;;12.50;10.80;;;;;;;12.89;100.00;101759.81;4983226;28;20042;-57
2023/09/27 02:45:58;;;;;;;12.05;10.82;;;;;;;13.29;100.00;101819.53;4992810;28;20041;-56
2023/09/27 02:48:24;;;;;;;12.88;11.10;;;;;;;12.88;100.00;101766.00;4993061;28;20034;-56
2023/09/27 02:50:50;;;;;;;11.95;10.73;;;;;;;13.19;100.00;101818.06;4992758;28;20030;-56
2023/09/27 02:53:16;;;;;;;12.25;11.13;;;;;;;13.30;100.00;101832.75;4992915;28;20113;-54
2023/09/27 02:55:41;;;;;;;15.13;12.18;;;;;;;13.03;100.00;101795.56;4993107;28;20030;-57
2023/09/27 02:58:06;;;;;;;12.70;11.15;;;;;;;13.31;100.00;101852.13;4991389;28;20060;-57
2023/09/27 03:00:34;;;;;;;14.40;11.10;;;;;;;13.30;100.00;101858.31;4991578;28;20046;-55
2023/09/27 03:03:00;;;;;;;13.60;11.98;;;;;;;12.86;100.00;101766.97;4992654;28;20042;-55
2023/09/27 03:05:28;;;;;;;12.43;11.00;;;;;;;13.37;100.00;101849.28;4991088;28;20361;-56
2023/09/27 03:07:57;;;;;;;13.73;11.07;;;;;;;13.35;100.00;101856.38;4991587;28;20122;-55
2023/09/27 03:10:23;;;;;;;15.63;12.57;;;;;;;12.94;100.00;101781.69;4992622;28;20061;-52
2023/09/27 03:12:49;;;;;;;13.15;11.40;;;;;;;13.32;100.00;101843.25;4992484;28;20030;-56
2023/09/27 03:15:14;;;;;;;13.68;11.35;;;;;;;13.30;100.00;101838.03;4992491;28;20058;-54
2023/09/27 03:17:41;;;;;;;14.50;10.80;;;;;;;12.86;100.00;101757.28;4991813;28;20044;-57
2023/09/27 03:20:16;;;;;;;12.43;11.23;;;;;;;12.85;100.00;101767.88;4991929;28;20049;-55
2023/09/27 03:22:47;;;;;;;13.80;12.30;;;;;;;12.77;100.00;101752.22;4992355;28;20034;-58
2023/09/27 03:25:12;;;;;;;;;;;;;;;13.29;100.00;101848.63;4992774;28;20398;-52
2023/09/27 03:27:37;;;;;;;16.10;12.05;;;;;;;13.28;100.00;101854.84;4990478;28;19920;-56
2023/09/27 03:30:04;;;;;;;11.43;10.25;;;;;;;13.21;100.00;101842.69;4992373;28;20026;-58
2023/09/27 03:32:31;;;;;;;13.98;10.48;;;;;;;13.23;100.00;101841.72;4991198;28;20034;-57
2023/09/27 03:34:57;;;;;;;13.48;11.00;;;;;;;13.23;100.00;101847.03;4992262;28;20057;-54
2023/09/27 03:37:23;;;;;;;15.35;11.45;;;;;;;13.19;100.00;101850.66;4992385;28;20065;-55
2023/09/27 03:39:52;;;;;;;12.85;11.25;;;;;;;13.19;100.00;101852.44;4992265;28;20034;-57
2023/09/27 03:42:20;;;;;;;14.93;12.32;;;;;;;13.13;100.00;101853.47;4992074;28;20035;-54
2023/09/27 03:44:47;;;;;;;13.80;11.75;;;;;;;13.18;100.00;101864.78;4992230;28;20026;-58
2023/09/27 03:47:12;;;;;;;15.23;11.10;;;;;;;13.15;100.00;101861.34;4990785;28;20035;-58
2023/09/27 03:49:39;;;;;;;15.88;12.20;;;;;;;12.70;100.00;101779.69;4991079;28;20062;-57
2023/09/27 03:52:05;;;;;;;15.43;11.05;;;;;;;13.08;100.00;101849.19;4992275;28;20034;-56
2023/09/27 03:54:30;;;;;;;15.18;11.63;;;;;;;13.08;100.00;101838.63;4992190;28;20045;-57
2023/09/27 03:56:55;;;;;;;14.60;12.55;;;;;;;13.02;100.00;101829.06;4992382;28;20038;-55
2023/09/27 03:59:21;;;;;;;16.77;12.13;;;;;;;13.09;100.00;101830.66;4992058;28;20470;-52
2023/09/27 04:01:46;;;;;;;14.20;12.02;;;;;;;13.11;100.00;101836.78;4991970;28;20350;-52
2023/09/27 04:04:12;;;;;;;15.43;13.20;;;;;;;12.66;100.00;101751.66;4990950;28;20038;-56
2023/09/27 04:06:37;;;;;;;18.00;13.15;;;;;;;12.64;100.00;101742.03;4990760;28;20046;-54
2023/09/27 04:09:03;;;;;;;17.85;13.80;;;;;;;12.77;100.00;101781.28;4990643;28;20462;-55
2023/09/27 04:11:29;;;;;;;19.50;14.48;;;;;;;12.82;100.00;101774.09;4990627;28;20031;-56
2023/09/27 04:13:54;;;;;;;17.05;12.07;;;;;;;12.81;100.00;101763.59;4991786;28;20042;-55
2023/09/27 04:16:19;;;;;;;13.52;12.02;;;;;;;12.79;100.00;101744.25;4991690;28;20035;-57
2023/09/27 04:18:44;;;;;;;19.10;13.05;;;;;;;12.80;100.00;101756.56;4991059;28;20416;-58
2023/09/27 04:21:11;;;;;;;16.20;12.95;;;;;;;13.25;100.00;101834.63;4992025;28;20496;-55
2023/09/27 04:23:36;;;;;;;17.35;12.93;;;;;;;12.84;100.00;101759.06;4991858;28;20048;-57
2023/09/27 04:26:05;;;;;;;14.80;13.05;;;;;;;13.25;100.00;101825.84;4991959;28;20039;-55
2023/09/27 04:28:30;;;;;;;15.93;12.57;;;;;;;13.24;100.00;101832.03;4991848;28;20397;-57
2023/09/27 04:30:56;;;;;;;16.77;13.10;;;;;;;12.82;100.00;101760.03;4990435;28;20034;-56
2023/09/27 04:33:21;;;;;;;15.82;13.52;;;;;;;13.18;100.00;101826.91;4990843;28;20253;-57
2023/09/27 04:35:47;;;;;;;19.42;13.95;;;;;;;13.19;100.00;101818.91;4991910;28;20039;-56
2023/09/27 04:38:13;;;;;;;19.85;14.32;;;;;;;13.09;100.00;101824.50;4991429;28;20113;-57
2023/09/27 04:40:38;;;;;;;19.92;14.40;;;;;;;13.07;100.00;101831.59;4994801;28;20165;-56
2023/09/27 04:43:04;;;;;;;16.90;13.48;;;;;;;12.65;100.00;101751.69;4993909;28;20371;-56
2023/09/27 04:45:29;;;;;;;16.92;12.45;;;;;;;13.00;100.00;101817.66;4995141;28;20520;-56
2023/09/27 04:47:54;;;;;;;18.40;14.00;;;;;;;12.88;100.00;101804.78;4995347;28;20093;-55
2023/09/27 04:50:20;;;;;;;17.13;14.80;;;;;;;12.50;100.00;101746.78;4982727;28;20058;-56
2023/09/27 04:52:45;;;;;;;21.25;15.07;;;;;;;12.52;100.00;101750.28;4975804;28;20406;-58
2023/09/27 04:55:12;;;;;;;20.35;14.80;;;;;;;12.84;100.00;101793.41;4975891;28;20035;-54
2023/09/27 04:57:37;;;;;;;25.20;18.38;;;;;;;12.90;100.00;101801.19;4974187;28;20039;-57
2023/09/27 05:00:05;;;;;;;22.50;18.10;;;;;;;13.00;100.00;101815.03;4974942;28;20042;-55
2023/09/27 05:02:31;;;;;;;24.30;17.73;;;;;;;13.05;100.00;101807.81;4980694;28;20050;-55
2023/09/27 05:04:56;;;;;;;21.85;17.02;;;;;;;13.10;100.00;101815.69;4980212;28;20072;-55
2023/09/27 05:07:22;;;;;;;22.65;17.52;;;;;;;12.91;100.00;101767.69;4992576;28;20492;-53
2023/09/27 05:09:48;;;;;;;23.63;18.55;;;;;;;13.08;100.00;101793.69;4994840;28;20040;-53
2023/09/27 05:12:13;;;;;;;21.83;18.05;;;;;;;12.63;100.00;101732.38;4994413;28;20033;-54
2023/09/27 05:14:39;;;;;;;21.13;16.92;;;;;;;13.05;100.00;101804.34;4994536;28;20030;-54
2023/09/27 05:17:05;;;;;;;23.52;17.92;;;;;;;12.64;100.00;101734.13;4994398;28;20046;-56
2023/09/27 05:19:30;;;;;;;24.25;17.50;;;;;;;13.08;100.00;101796.34;4988463;28;20035;-58
2023/09/27 05:21:56;;;;;;;29.85;18.45;;;;;;;13.08;100.00;101794.56;4994607;28;20386;-58
2023/09/27 05:24:21;;;;;;;20.85;17.00;;;;;;;13.06;100.00;101799.00;4994573;28;20427;-57
2023/09/27 05:26:47;;;;;;;26.80;18.30;;;;;;;13.03;100.00;101777.06;4994211;28;20038;-56
2023/09/27 05:29:13;;;;;;;31.90;20.90;;;;;;;13.10;100.00;101797.19;4994370;28;20065;-53
2023/09/27 05:31:40;;;;;;;27.33;19.63;;;;;;;13.15;100.00;101795.28;4993830;28;20038;-56
2023/09/27 05:34:05;;;;;;;24.85;18.92;;;;;;;12.74;100.00;101717.09;4994216;28;20117;-57
2023/09/27 05:36:30;;;;;;;24.83;20.33;;;;;;;13.21;100.00;101790.69;4986945;28;20185;-56
2023/09/27 05:38:56;;;;;;;31.58;23.00;;;;;;;12.84;100.00;101722.06;4992213;28;20454;-54
2023/09/27 05:41:22;;;;;;;25.05;21.75;;;;;;;12.90;100.00;101721.91;4991728;28;20366;-56
2023/09/27 05:43:48;;;;;;;27.45;21.05;;;;;;;12.81;100.00;101713.38;4992854;28;20038;-56
2023/09/27 05:46:13;;;;;;;25.48;19.80;;;;;;;13.30;100.00;101798.38;4991427;28;20046;-54
2023/09/27 05:48:39;;;;;;;29.35;22.05;;;;;;;13.30;100.00;101803.66;4987063;28;20050;-57
2023/09/27 05:51:05;;;;;;;27.20;21.48;;;;;;;13.30;100.00;101802.78;4990738;28;20034;-54
2023/09/27 05:53:31;;;;;;;27.30;21.85;;;;;;;13.33;100.00;101805.34;4987347;28;20081;-56
2023/09/27 05:55:57;;;;;;;26.30;21.58;;;;;;;13.31;100.00;101793.94;4991773;28;20072;-56
2023/09/27 05:58:22;;;;;;;26.58;22.27;;;;;;;13.00;100.00;101741.03;4983738;28;20085;-56
2023/09/27 06:00:49;;;;;;;31.15;22.42;;;;;;;13.02;100.00;101736.56;4974688;28;20066;-55
2023/09/27 06:03:15;;;;;;;34.75;25.08;;;;;;;13.46;100.00;101798.78;4974043;28;20520;-51
2023/09/27 06:05:41;;;;;;;32.33;23.25;;;;;;;13.42;100.00;101781.28;4992477;28;20121;-58
2023/09/27 06:08:06;;;;;;;31.38;22.33;;;;;;;13.49;100.00;101796.03;4993349;28;20066;-49
2023/09/27 06:10:32;;;;;;;31.08;23.23;;;;;;;13.13;100.00;101745.09;4981769;28;20069;-51
2023/09/27 06:12:57;;;;;;;35.15;23.08;;;;;;;13.24;100.00;101739.50;4992002;28;20405;-49
2023/09/27 06:15:24;;;;;;;35.97;24.08;;;;;;;13.46;100.00;101770.53;4991734;28;20053;-50
2023/09/27 06:17:49;;;;;;;29.98;21.48;;;;;;;13.33;100.00;101733.94;4979210;28;20061;-55
2023/09/27 06:20:22;;;;;;;40.00;25.10;;;;;;;13.58;100.00;101773.72;4992871;28;20351;-50
2023/09/27 06:22:48;;;;;;;31.42;24.15;;;;;;;13.39;100.00;101734.63;4977497;28;20039;-55
2023/09/27 06:25:15;;;;;;;32.05;23.05;;;;;;;13.65;100.00;101770.00;4976268;28;20061;-53
2023/09/27 06:27:40;;;;;;;28.40;23.65;;;;;;;13.63;100.00;101748.88;4991308;28;20053;-54
2023/09/27 06:30:07;;;;;;;38.15;23.98;;;;;;;13.55;100.00;101697.97;4992192;28;20034;-49
2023/09/27 06:32:35;;;;;;;34.20;23.70;;;;;;;13.50;100.00;101679.63;4993249;28;20069;-55
2023/09/27 06:35:00;;;;;;;33.85;24.02;;;;;;;13.69;100.00;101708.16;5005920;28;20060;-49
2023/09/27 06:37:25;;;;;;;34.80;25.70;;;;;;;13.79;100.00;101696.34;4991452;28;20039;-54
2023/09/27 06:39:51;;;;;;;35.83;25.52;;;;;;;14.24;100.00;101758.41;4986036;28;20043;-51
2023/09/27 06:42:16;;;;;;;34.53;24.45;;;;;;;14.30;100.00;101744.09;4992084;28;20141;-49
2023/09/27 06:44:41;;;;;;;33.95;25.67;;;;;;;14.18;100.00;101710.94;4982667;28;20047;-51
2023/09/27 06:47:07;;;;;;;39.63;27.20;;;;;;;14.55;100.00;101801.53;4990873;28;20038;-52
2023/09/27 06:49:32;;;;;;;35.55;26.30;;;;;;;14.52;100.00;101768.97;4984323;28;20074;-51
2023/09/27 06:51:57;;;;;;;32.80;25.20;;;;;;;14.32;100.00;101736.97;4992216;28;20057;-53
2023/09/27 06:54:22;;;;;;;38.80;26.63;;;;;;;14.38;100.00;101750.91;4990476;28;20046;-54
2023/09/27 06:56:48;;;;;;;33.28;25.60;;;;;;;14.76;100.00;101815.84;4992527;28;20437;-53
2023/09/27 06:59:13;;;;;;;31.13;24.75;;;;;;;14.84;100.00;101823.50;4990434;28;20035;-55
2023/09/27 07:01:41;;;;;;;30.15;25.02;;;;;;;14.99;100.00;101853.03;4991616;28;20042;-50
2023/09/27 07:04:06;;;;;;;32.80;25.80;;;;;;;15.02;100.00;101855.56;4992189;28;20497;-50
2023/09/27 07:06:31;;;;;;;32.20;24.55;;;;;;;15.07;100.00;101850.09;4990793;28;20064;-53
2023/09/27 07:08:57;;;;;;;38.58;26.10;;;;;;;15.13;100.00;101853.41;4990773;28;20038;-48
2023/09/27 07:11:23;;;;;;;34.38;25.27;;;;;;;14.77;100.00;101788.41;4989595;28;20034;-55
2023/09/27 07:13:49;;;;;;;35.50;24.63;;;;;;;15.15;100.00;101851.56;4990355;28;20485;-48
2023/09/27 07:16:27;;;;;;;26.52;22.83;;;;;;;15.34;100.00;101858.88;4991318;28;20136;-51
2023/09/27 07:18:56;;;;;;;32.78;24.15;;;;;;;15.44;100.00;101868.25;4991414;28;20030;-52
2023/09/27 07:21:22;;;;;;;28.55;21.50;;;;;;;15.49;100.00;101851.25;4989989;28;20038;-55
2023/09/27 07:23:50;;;;;;;34.97;25.65;;;;;;;15.30;100.00;101789.13;4990513;28;20049;-47
2023/09/27 07:26:18;;;;;;;29.17;24.05;;;;;;;15.36;100.00;101780.09;4992415;28;20034;-57
2023/09/27 07:28:45;;;;;;;24.77;21.55;;;;;;;15.55;100.00;101771.44;4990315;28;20045;-49
2023/09/27 07:31:17;;;;;;;26.10;23.20;;;;;;;15.96;100.00;101819.41;4989569;28;20350;-50
2023/09/27 07:33:52;;;;;;;31.00;23.10;;;;;;;15.80;100.00;101758.06;4990831;28;20117;-50
2023/09/27 07:36:20;;;;;;;28.77;23.55;;;;;;;15.92;100.00;101762.88;4988774;28;20078;-53
2023/09/27 07:38:47;;;;;;;25.73;22.63;;;;;;;16.20;100.00;101806.00;4989524;28;20052;-51
2023/09/27 07:41:15;;;;;;;25.67;22.48;;;;;;;16.51;100.00;101837.50;4988746;28;20049;-54
2023/09/27 07:43:40;;;;;;;24.50;20.70;;;;;;;16.65;100.00;101855.56;4989144;28;20061;-48
2023/09/27 07:46:06;;;;;;;23.05;20.45;;;;;;;16.76;100.00;101848.00;4990683;28;20061;-50
2023/09/27 07:48:38;;;;;;;22.48;19.73;;;;;;;16.91;100.00;101834.06;4989010;28;20038;-52
2023/09/27 07:51:24;;;;;;;22.33;19.92;;;;;;;17.04;100.00;101829.97;4990599;28;20085;-52
2023/09/27 07:53:49;;;;;;;25.95;19.85;;;;;;;17.10;100.00;101821.72;4989129;28;20031;-49
2023/09/27 07:56:19;;;;;;;26.30;19.60;;;;;;;17.30;100.00;101832.34;4988950;28;20027;-51
2023/09/27 07:58:46;;;;;;;21.63;18.27;;;;;;;17.07;100.00;101766.00;4988287;28;20050;-55
2023/09/27 08:01:12;;;;;;;22.63;18.52;;;;;;;17.25;100.00;101773.13;4989326;28;20038;-51
2023/09/27 08:03:38;;;;;;;21.70;18.30;;;;;;;17.69;100.00;101832.34;4990593;28;20038;-57
2023/09/27 08:06:04;;;;;;;21.05;18.77;;;;;;;17.34;100.00;101774.50;4990601;28;20337;-57
2023/09/27 08:08:30;;;;;;;21.83;18.42;;;;;;;17.62;100.00;101841.56;4989627;28;20485;-58
2023/09/27 08:10:57;;;;;;;23.55;18.40;;;;;;;17.33;100.00;101800.28;4989270;28;20043;-49
2023/09/27 08:13:23;;;;;;;21.13;18.92;;;;;;;17.44;100.00;101832.59;4989367;28;20394;-56
2023/09/27 08:15:51;;;;;;;21.80;18.63;;;;;;;16.99;100.00;101776.09;4992554;28;20034;-49
2023/09/27 08:18:17;;;;;;;22.55;18.58;;;;;;;15.98;100.00;101621.03;4991243;28;20038;-49
2023/09/27 08:20:42;;;;;;;20.92;18.65;;;;;;;16.85;100.00;101787.34;4990041;28;20351;-51
2023/09/27 08:23:08;;;;;;;22.15;19.08;;;;;;;17.17;100.00;101838.25;4974743;28;20034;-51
2023/09/27 08:25:33;;;;;;;23.25;19.65;;;;;;;16.86;100.00;101790.88;4986060;28;20595;-53
2023/09/27 08:28:01;;;;;;;23.05;19.77;;;;;;;17.19;100.00;101828.44;4993933;28;20038;-52
2023/09/27 08:30:27;;;;;;;26.10;20.15;;;;;;;17.26;100.00;101840.50;4990963;28;20120;-48
2023/09/27 08:32:52;;;;;;;22.80;19.15;;;;;;;17.23;100.00;101835.31;4992855;28;20157;-57
2023/09/27 08:35:17;;;;;;;25.20;19.42;;;;;;;17.20;100.00;101827.47;4992693;28;20031;-50
2023/09/27 08:37:43;;;;;;;22.30;19.27;;;;;;;16.92;100.00;101777.31;4990191;28;20053;-51
2023/09/27 08:40:12;;;;;;;21.95;19.63;;;;;;;16.84;100.00;101751.03;4983500;28;20042;-55
2023/09/27 08:42:39;;;;;;;26.85;19.90;;;;;;;16.77;100.00;101754.91;4989340;28;20553;-55
2023/09/27 08:45:06;;;;;;;23.58;18.60;;;;;;;16.79;100.00;101776.97;4978671;28;20098;-53
2023/09/27 08:47:33;;;;;;;22.23;19.13;;;;;;;17.13;100.00;101823.38;4987452;28;20030;-56
2023/09/27 08:49:58;;;;;;;19.92;17.88;;;;;;;17.26;100.00;101828.09;4992127;28;20054;-49
2023/09/27 08:52:26;;;;;;;21.52;19.42;;;;;;;17.32;100.00;101843.78;4982976;28;20047;-49
2023/09/27 08:54:51;;;;;;;21.25;18.27;;;;;;;17.39;100.00;101831.94;4974377;28;20062;-50
2023/09/27 08:57:17;;;;;;;26.40;20.17;;;;;;;17.48;100.00;101833.31;4988425;28;20077;-50
2023/09/27 08:59:43;;;;;;;23.55;19.33;;;;;;;17.57;100.00;101843.56;4988102;28;20092;-53
2023/09/27 09:02:09;;;;;;;22.35;19.00;;;;;;;17.17;100.00;101772.63;4985349;28;20046;-48
2023/09/27 09:04:35;;;;;;;21.38;19.08;;;;;;;17.33;100.00;101797.63;4985313;28;20037;-48
2023/09/27 09:07:06;;;;;;;22.77;18.80;;;;;;;17.81;100.00;101854.88;4972661;28;20130;-49
2023/09/27 09:09:33;;;;;;;22.33;19.20;;;;;;;17.78;100.00;101837.25;4976334;28;20046;-48
2023/09/27 09:12:01;;;;;;;19.20;17.15;;;;;;;17.66;100.00;101784.56;4990141;28;20509;-49
2023/09/27 09:14:43;;;;;;;22.20;18.50;;;;;;;17.98;100.00;101833.66;4983577;28;20030;-53
2023/09/27 09:17:10;;;;;;;21.70;19.40;;;;;;;18.01;100.00;101838.00;4979969;28;20050;-50
2023/09/27 09:19:38;;;;;;;23.48;19.25;;;;;;;17.97;100.00;101835.47;4992955;28;20113;-53
2023/09/27 09:22:09;;;;;;;22.42;19.33;;;;;;;17.99;100.00;101838.06;4992817;28;20034;-48
2023/09/27 09:24:45;;;;;;;21.45;19.15;;;;;;;18.11;100.00;101818.81;4991901;28;20042;-55
2023/09/27 09:27:11;;;;;;;21.08;18.88;;;;;;;18.27;100.00;101824.28;4992219;28;20046;-50
2023/09/27 09:29:43;;;;;;;22.98;19.55;;;;;;;18.38;100.00;101816.63;4992933;28;20573;-49
2023/09/27 09:32:08;;;;;;;20.95;18.83;;;;;;;18.48;100.00;101812.53;4992953;28;20088;-50
2023/09/27 09:34:40;;;;;;;21.35;17.20;;;;;;;18.20;100.00;101765.09;4980507;28;20030;-54
2023/09/27 09:37:15;;;;;;;20.17;17.95;;;;;;;18.18;100.00;101729.66;4992836;28;20383;-50
2023/09/27 09:39:40;;;;;;;22.25;17.67;;;;;;;18.76;100.00;101838.75;4993273;28;20089;-50
2023/09/27 09:42:06;;;;;;;19.58;17.52;;;;;;;18.52;100.00;101764.38;4993072;28;20034;-49
2023/09/27 09:44:31;;;;;;;21.35;17.60;;;;;;;18.60;100.00;101755.97;4992998;28;20046;-49
2023/09/27 09:47:10;;;;;;;18.85;17.00;;;;;;;18.80;100.00;101762.94;4992823;28;20069;-53
2023/09/27 09:49:36;;;;;;;20.70;16.85;;;;;;;19.14;100.00;101823.44;4992461;28;20089;-49
2023/09/27 09:52:03;;;;;;;22.58;18.30;;;;;;;19.16;100.00;101826.88;4992895;28;20462;-49
2023/09/27 09:54:46;;;;;;;20.90;17.05;;;;;;;18.82;100.00;101743.28;4991571;28;20066;-52
2023/09/27 09:57:13;;;;;;;22.85;17.73;;;;;;;18.89;100.00;101746.47;4985097;28;20033;-51
2023/09/27 10:00:00;;;;;;;19.98;17.88;;;;;;;19.26;100.00;101802.31;4956278;28;20035;-47
2023/09/27 10:02:32;;;;;;;21.75;16.90;;;;;;;19.23;100.00;101786.44;4973349;28;20122;-53
2023/09/27 10:04:59;;;;;;;18.15;16.25;;;;;;;19.22;100.00;101755.34;4972060;28;20035;-49
2023/09/27 10:07:24;;;;;;;22.50;16.70;;;;;;;18.92;100.00;101708.94;4972864;28;20395;-48
2023/09/27 10:09:50;;;;;;;19.35;16.50;;;;;;;18.87;100.00;101713.66;4987650;28;20042;-49
2023/09/27 10:12:17;;;;;;;19.17;17.02;;;;;;;18.98;100.00;101729.97;4992508;28;20048;-55
2023/09/27 10:14:44;;;;;;;22.48;16.60;;;;;;;18.55;100.00;101678.03;4990963;28;20506;-53
2023/09/27 10:17:22;;;;;;;22.65;17.85;;;;;;;18.85;100.00;101737.78;4992117;28;20038;-53
2023/09/27 10:20:14;;;;;;;19.98;17.88;;;;;;;19.07;100.00;101737.47;4990769;28;20038;-49
2023/09/27 10:22:42;;;;;;;;;;;;;;;19.21;100.00;101739.41;4992924;28;20101;-49
2023/09/27 10:25:30;;;;;;;19.17;17.20;;;;;;;19.25;100.00;101746.31;4992001;28;19922;-49
2023/09/27 10:28:01;;;;;;;21.35;19.08;;;;;;;19.40;100.00;101749.06;4992248;28;20034;-48
2023/09/27 10:30:48;;;;;;;24.10;16.35;;;;;;;19.65;100.00;101737.88;4992012;28;20184;-50
2023/09/27 10:33:22;;;;;;;19.02;16.30;;;;;;;19.83;100.00;101738.66;4991011;28;20045;-49
2023/09/27 10:36:15;;;;;;;19.00;16.75;;;;;;;19.99;100.00;101729.66;4991957;28;20501;-56
2023/09/27 10:38:43;;;;;;;20.80;16.58;;;;;;;20.15;100.00;101740.34;4991622;28;20031;-54
2023/09/27 10:41:09;;;;;;;18.48;15.77;;;;;;;19.92;100.00;101682.00;4992095;28;20034;-49
2023/09/27 10:43:42;;;;;;;18.20;15.50;;;;;;;20.21;100.00;101675.81;4984286;28;20110;-49
2023/09/27 10:46:08;;;;;;;18.58;12.27;;;;;;;20.64;100.00;101698.19;4976297;28;20062;-48
2023/09/27 10:48:36;;;;;;;16.55;12.07;;;;;;;21.31;100.00;101748.47;4991683;28;20054;-49
2023/09/27 10:51:01;;;;;;;13.77;10.75;;;;;;;21.78;100.00;101751.66;4991435;28;20526;-51
2023/09/27 10:53:26;;;;;;;14.18;11.18;;;;;;;22.14;100.00;101720.75;4990258;28;20061;-53
2023/09/27 10:55:52;;;;;;;14.40;11.38;;;;;;;22.95;100.00;101727.69;4974399;28;20042;-48
2023/09/27 10:58:18;;;;;;;12.68;10.20;;;;;;;23.90;100.00;101714.56;4991417;28;20475;-49
2023/09/27 11:00:53;;;;;;;13.48;9.82;;;;;;;25.56;100.00;101795.88;4991460;28;20492;-53
2023/09/27 11:03:19;;;;;;;10.95;9.77;;;;;;;26.83;100.00;101855.50;4991681;28;20089;-50
2023/09/27 11:05:44;;;;;;;16.50;9.63;;;;;;;27.75;100.00;101856.53;4991521;28;20390;-50